createdAt,value
2023-02-09T05:47:36.998Z,60.80
2023-02-09T05:50:05.580Z,63.42
2023-02-09T05:52:33.559Z,68.38
2023-02-09T05:55:01.656Z,69.40
2023-02-09T05:57:29.554Z,67.13
2023-02-09T05:59:57.456Z,67.65
2023-02-09T06:02:25.364Z,66.38
2023-02-09T06:04:54.652Z,69.18
2023-02-09T06:07:22.585Z,70.30
2023-02-09T06:09:50.548Z,68.30
2023-02-09T06:12:18.475Z,68.38
2023-02-09T06:14:46.452Z,72.32
2023-02-09T06:17:14.403Z,79.05
2023-02-09T06:19:42.320Z,82.43
2023-02-09T06:22:11.671Z,75.65
2023-02-09T06:24:39.630Z,78.85
2023-02-09T06:27:07.538Z,83.40
2023-02-09T06:29:35.481Z,77.47
2023-02-09T06:32:03.566Z,76.55
2023-02-09T06:34:31.558Z,74.20
2023-02-09T06:36:59.467Z,68.35
2023-02-09T06:39:29.473Z,72.65
2023-02-09T06:41:57.408Z,73.18
2023-02-09T06:44:25.313Z,72.70
2023-02-09T06:46:53.203Z,73.90
2023-02-09T06:49:23.627Z,68.88
2023-02-09T06:51:52.040Z,65.05
2023-02-09T06:54:20.092Z,70.18
2023-02-09T06:56:49.464Z,71.35
2023-02-09T06:59:17.451Z,70.00
2023-02-09T07:01:45.391Z,67.35
2023-02-09T07:04:13.393Z,75.40
2023-02-09T07:06:41.361Z,80.57
2023-02-09T07:09:11.044Z,94.50
2023-02-09T07:11:38.948Z,83.57
2023-02-09T07:14:08.201Z,82.60
2023-02-09T07:16:36.109Z,75.82
2023-02-09T07:19:04.036Z,76.55
2023-02-09T07:21:31.975Z,66.57
2023-02-09T07:23:59.897Z,73.20
2023-02-09T07:26:27.867Z,75.68
2023-02-09T07:28:55.864Z,71.53
2023-02-09T07:31:27.126Z,67.32
2023-02-09T07:33:56.620Z,72.40
2023-02-09T07:36:24.919Z,75.75
2023-02-09T07:38:53.036Z,70.35
2023-02-09T07:41:25.146Z,69.22
2023-02-09T07:43:53.911Z,69.15
2023-02-09T15:02:35.919Z,32.55
2023-02-09T15:05:03.890Z,30.67
2023-02-09T15:07:36.466Z,32.40
2023-02-09T15:10:05.021Z,32.65
2023-02-09T15:12:33.045Z,35.50
2023-02-09T15:15:02.614Z,35.63
2023-02-09T15:17:32.286Z,35.40
2023-02-09T15:20:01.580Z,34.25
2023-02-09T15:22:29.601Z,34.65
2023-02-09T15:24:57.593Z,33.30
2023-02-09T15:27:28.323Z,33.45
2023-02-09T15:29:59.496Z,32.38
2023-02-09T15:32:29.482Z,31.13
2023-02-09T15:34:57.617Z,42.40
2023-02-09T15:37:28.982Z,42.28
2023-02-09T15:40:00.451Z,44.00
2023-02-09T15:42:46.072Z,41.05
2023-02-09T15:45:38.144Z,41.72
2023-02-09T15:48:06.764Z,45.45
2023-02-09T15:50:37.112Z,36.75
2023-02-09T15:53:09.270Z,36.15
2023-02-09T15:55:38.152Z,36.47
2023-02-09T15:58:13.781Z,34.20
2023-02-09T16:00:41.950Z,36.03
2023-02-09T16:03:15.584Z,39.95
2023-02-09T16:05:44.171Z,34.28
2023-02-09T16:08:20.005Z,39.63
2023-02-09T16:10:48.794Z,38.15
2023-02-09T16:13:18.403Z,35.55
2023-02-09T16:15:47.937Z,43.55
2023-02-09T16:18:15.984Z,43.40
2023-02-09T16:20:47.791Z,39.38
2023-02-09T16:23:21.473Z,76.80
2023-02-09T16:25:50.685Z,77.78
2023-02-09T16:28:19.362Z,50.78
2023-02-09T16:30:53.118Z,42.83
2023-02-09T16:33:21.906Z,47.00
2023-02-09T16:35:54.212Z,47.63
2023-02-09T16:38:24.936Z,43.67
2023-02-09T16:40:54.141Z,42.88
2023-02-09T16:43:22.784Z,42.53
2023-02-09T16:46:02.856Z,44.75
2023-02-09T16:48:35.154Z,45.22
2023-02-09T16:51:03.530Z,42.75
2023-02-09T16:53:36.622Z,40.40
2023-02-09T16:56:09.997Z,42.22
2023-02-09T16:58:38.321Z,40.45
2023-02-09T17:01:14.466Z,44.25
2023-02-09T17:03:44.618Z,46.90
2023-02-09T17:06:17.190Z,43.35
2023-02-09T17:08:46.903Z,44.22
2023-02-09T17:11:17.965Z,42.22
2023-02-09T17:13:46.067Z,41.42
2023-02-09T17:16:18.816Z,44.05
2023-02-09T17:18:49.373Z,47.92
2023-02-09T17:21:21.574Z,70.18
2023-02-09T17:23:52.227Z,70.35
2023-02-09T17:26:20.754Z,55.45
2023-02-09T17:28:48.841Z,42.97
2023-02-09T17:31:19.701Z,43.22
2023-02-09T17:33:50.061Z,42.55
2023-02-09T17:36:26.329Z,40.65
2023-02-09T17:38:57.599Z,40.20
2023-02-09T17:41:31.376Z,42.40
2023-02-09T17:44:20.822Z,43.78
2023-02-09T17:46:54.486Z,45.13
2023-02-09T17:49:23.245Z,51.47
2023-02-09T17:51:51.500Z,67.63
2023-02-09T17:54:21.833Z,62.67
2023-02-09T17:56:52.925Z,54.28
2023-02-09T17:59:22.822Z,54.47
2023-02-09T18:01:51.252Z,50.13
2023-02-09T18:04:22.384Z,45.33
2023-02-09T18:06:50.935Z,48.03
2023-02-09T18:09:20.444Z,50.40
2023-02-09T18:12:01.423Z,54.97
2023-02-09T18:14:31.732Z,49.95
2023-02-09T18:16:59.840Z,52.38
2023-02-09T18:19:27.882Z,54.60
2023-02-09T18:21:58.017Z,54.05
2023-02-09T18:24:30.175Z,142.85
2023-02-09T18:26:58.220Z,184.93
2023-02-09T18:29:29.332Z,84.03
2023-02-09T18:31:59.956Z,65.30
2023-02-09T18:34:28.278Z,58.00
2023-02-09T18:36:56.420Z,49.80
2023-02-09T18:39:24.942Z,53.75
2023-02-09T18:41:55.293Z,53.85
2023-02-09T18:44:29.180Z,47.28
2023-02-09T18:46:57.686Z,49.25
2023-02-09T18:49:25.823Z,49.75
2023-02-09T18:51:53.893Z,56.63
2023-02-09T18:54:21.934Z,54.30
2023-02-09T18:56:49.870Z,52.05
2023-02-09T18:59:19.356Z,50.78
2023-02-09T19:01:47.421Z,50.10
2023-02-09T19:04:15.444Z,46.03
2023-02-09T19:06:46.256Z,50.25
2023-02-09T19:09:14.289Z,45.08
2023-02-09T19:11:42.196Z,45.50
2023-02-09T19:14:44.151Z,50.47
2023-02-09T19:17:19.284Z,53.38
2023-02-09T19:19:48.789Z,51.03
2023-02-09T19:22:18.353Z,52.28
2023-02-09T19:24:47.526Z,50.08
2023-02-09T19:27:18.454Z,49.28
2023-02-09T19:29:47.224Z,79.10
2023-02-09T19:32:16.589Z,73.85
2023-02-09T19:34:45.981Z,54.38
2023-02-09T19:37:16.273Z,50.67
2023-02-09T19:39:52.584Z,45.80
2023-02-09T19:42:21.648Z,48.78
2023-02-09T19:44:50.256Z,45.03
2023-02-09T19:47:25.804Z,42.72
2023-02-09T19:49:55.308Z,40.42
2023-02-09T19:52:23.441Z,44.22
2023-02-09T19:54:52.130Z,41.70
2023-02-09T19:57:20.851Z,40.35
2023-02-09T19:59:49.466Z,47.60
2023-02-09T20:02:19.384Z,46.92
2023-02-09T20:04:47.430Z,46.55
2023-02-09T20:07:16.057Z,42.35
2023-02-09T20:09:48.094Z,53.35
2023-02-09T20:12:16.109Z,52.58
2023-02-09T20:14:44.200Z,50.20
2023-02-09T20:17:12.454Z,50.38
2023-02-09T20:19:42.070Z,47.22
2023-02-09T20:22:10.145Z,45.65
2023-02-09T20:24:38.347Z,42.28
2023-02-09T20:27:07.823Z,47.00
2023-02-09T20:29:37.463Z,46.13
2023-02-09T20:32:06.108Z,46.45
2023-02-09T20:34:34.167Z,44.45
2023-02-09T20:37:03.645Z,47.70
2023-02-09T20:39:31.820Z,48.33
2023-02-09T20:42:17.847Z,43.80
2023-02-09T20:45:03.413Z,48.33
2023-02-09T20:47:31.939Z,47.00
2023-02-09T20:50:00.958Z,44.83
2023-02-09T20:52:31.359Z,44.53
2023-02-09T20:54:59.474Z,46.63
2023-02-09T20:57:30.243Z,42.58
2023-02-09T20:59:58.319Z,44.20
